sensor_id;sensor_type;location;lat;lon;timestamp;P1;durP1;ratioP1;P2;durP2;ratioP2
19084;SDS011;9675;51.538;6.728;2023-03-22T00:01:09;10.50;;;3.90;;
19084;SDS011;9675;51.538;6.728;2023-03-22T00:03:39;6.73;;;2.90;;
19084;SDS011;9675;51.538;6.728;2023-03-22T00:06:07;5.87;;;2.97;;
19084;SDS011;9675;51.538;6.728;2023-03-22T00:08:36;5.20;;;3.17;;
19084;SDS011;9675;51.538;6.728;2023-03-22T00:11:04;6.23;;;3.60;;
19084;SDS011;9675;51.538;6.728;2023-03-22T00:13:33;7.17;;;3.27;;
19084;SDS011;9675;51.538;6.728;2023-03-22T00:16:02;6.70;;;2.83;;
19084;SDS011;9675;51.538;6.728;2023-03-22T00:18:30;7.93;;;2.97;;
19084;SDS011;9675;51.538;6.728;2023-03-22T00:20:58;6.83;;;3.20;;
19084;SDS011;9675;51.538;6.728;2023-03-22T00:23:26;4.63;;;2.30;;
19084;SDS011;9675;51.538;6.728;2023-03-22T00:25:55;4.83;;;2.37;;
19084;SDS011;9675;51.538;6.728;2023-03-22T00:28:22;8.47;;;3.40;;
19084;SDS011;9675;51.538;6.728;2023-03-22T00:30:50;8.57;;;3.47;;
19084;SDS011;9675;51.538;6.728;2023-03-22T00:33:20;8.27;;;3.37;;
19084;SDS011;9675;51.538;6.728;2023-03-22T00:35:48;9.60;;;2.77;;
19084;SDS011;9675;51.538;6.728;2023-03-22T00:38:17;6.93;;;2.90;;
19084;SDS011;9675;51.538;6.728;2023-03-22T00:40:45;4.67;;;2.57;;
19084;SDS011;9675;51.538;6.728;2023-03-22T00:43:13;3.63;;;2.33;;
19084;SDS011;9675;51.538;6.728;2023-03-22T00:45:41;9.47;;;3.60;;
19084;SDS011;9675;51.538;6.728;2023-03-22T00:48:09;13.03;;;4.20;;
19084;SDS011;9675;51.538;6.728;2023-03-22T00:50:37;7.13;;;3.40;;
19084;SDS011;9675;51.538;6.728;2023-03-22T00:53:04;6.90;;;3.73;;
19084;SDS011;9675;51.538;6.728;2023-03-22T00:55:32;7.93;;;3.70;;
19084;SDS011;9675;51.538;6.728;2023-03-22T00:57:59;5.93;;;3.87;;
19084;SDS011;9675;51.538;6.728;2023-03-22T01:00:27;8.03;;;3.40;;
19084;SDS011;9675;51.538;6.728;2023-03-22T01:02:55;9.90;;;3.30;;
19084;SDS011;9675;51.538;6.728;2023-03-22T01:05:23;11.90;;;4.97;;
19084;SDS011;9675;51.538;6.728;2023-03-22T01:07:52;8.77;;;3.87;;
19084;SDS011;9675;51.538;6.728;2023-03-22T01:10:21;10.57;;;4.40;;
19084;SDS011;9675;51.538;6.728;2023-03-22T01:12:48;14.83;;;5.47;;
19084;SDS011;9675;51.538;6.728;2023-03-22T01:15:15;29.80;;;9.93;;
19084;SDS011;9675;51.538;6.728;2023-03-22T01:17:44;21.93;;;7.00;;
19084;SDS011;9675;51.538;6.728;2023-03-22T01:20:11;9.07;;;4.07;;
19084;SDS011;9675;51.538;6.728;2023-03-22T01:22:38;11.23;;;5.23;;
19084;SDS011;9675;51.538;6.728;2023-03-22T01:25:06;11.50;;;4.50;;
19084;SDS011;9675;51.538;6.728;2023-03-22T01:27:34;8.63;;;3.67;;
19084;SDS011;9675;51.538;6.728;2023-03-22T01:30:02;20.13;;;8.87;;
19084;SDS011;9675;51.538;6.728;2023-03-22T01:32:30;12.70;;;5.60;;
19084;SDS011;9675;51.538;6.728;2023-03-22T01:34:58;8.20;;;4.67;;
19084;SDS011;9675;51.538;6.728;2023-03-22T01:37:25;11.30;;;4.70;;
19084;SDS011;9675;51.538;6.728;2023-03-22T01:39:52;11.17;;;4.33;;
19084;SDS011;9675;51.538;6.728;2023-03-22T01:42:20;10.93;;;4.70;;
19084;SDS011;9675;51.538;6.728;2023-03-22T01:48:00;9.23;;;5.07;;
19084;SDS011;9675;51.538;6.728;2023-03-22T01:50:34;8.00;;;4.17;;
19084;SDS011;9675;51.538;6.728;2023-03-22T01:53:06;9.73;;;3.97;;
19084;SDS011;9675;51.538;6.728;2023-03-22T01:55:37;7.83;;;3.37;;
19084;SDS011;9675;51.538;6.728;2023-03-22T01:58:06;9.57;;;4.37;;
19084;SDS011;9675;51.538;6.728;2023-03-22T02:00:33;11.63;;;6.60;;
19084;SDS011;9675;51.538;6.728;2023-03-22T02:03:01;11.37;;;4.90;;
19084;SDS011;9675;51.538;6.728;2023-03-22T02:05:31;7.77;;;3.90;;
19084;SDS011;9675;51.538;6.728;2023-03-22T02:08:01;10.50;;;4.07;;
19084;SDS011;9675;51.538;6.728;2023-03-22T02:10:30;11.63;;;4.83;;
19084;SDS011;9675;51.538;6.728;2023-03-22T02:13:02;9.33;;;4.13;;
19084;SDS011;9675;51.538;6.728;2023-03-22T02:15:52;9.27;;;4.00;;
19084;SDS011;9675;51.538;6.728;2023-03-22T02:18:36;8.40;;;4.13;;
19084;SDS011;9675;51.538;6.728;2023-03-22T02:21:42;8.83;;;3.83;;
19084;SDS011;9675;51.538;6.728;2023-03-22T02:28:22;5.97;;;3.17;;
19084;SDS011;9675;51.538;6.728;2023-03-22T02:31:14;7.47;;;3.97;;
19084;SDS011;9675;51.538;6.728;2023-03-22T02:34:05;6.20;;;3.57;;
19084;SDS011;9675;51.538;6.728;2023-03-22T02:37:08;5.00;;;3.30;;
19084;SDS011;9675;51.538;6.728;2023-03-22T02:40:21;8.70;;;3.70;;
19084;SDS011;9675;51.538;6.728;2023-03-22T02:42:56;8.07;;;3.50;;
19084;SDS011;9675;51.538;6.728;2023-03-22T02:45:40;6.17;;;4.00;;
19084;SDS011;9675;51.538;6.728;2023-03-22T02:48:17;7.00;;;3.00;;
19084;SDS011;9675;51.538;6.728;2023-03-22T02:50:54;7.47;;;3.60;;
19084;SDS011;9675;51.538;6.728;2023-03-22T02:53:30;6.47;;;3.37;;
19084;SDS011;9675;51.538;6.728;2023-03-22T02:56:09;6.63;;;3.57;;
19084;SDS011;9675;51.538;6.728;2023-03-22T02:58:42;5.50;;;3.00;;
19084;SDS011;9675;51.538;6.728;2023-03-22T03:01:15;17.13;;;3.83;;
19084;SDS011;9675;51.538;6.728;2023-03-22T03:03:49;6.33;;;3.53;;
19084;SDS011;9675;51.538;6.728;2023-03-22T03:06:23;7.87;;;3.40;;
19084;SDS011;9675;51.538;6.728;2023-03-22T03:08:55;6.67;;;3.37;;
19084;SDS011;9675;51.538;6.728;2023-03-22T03:11:28;10.07;;;3.40;;
19084;SDS011;9675;51.538;6.728;2023-03-22T03:13:55;6.97;;;3.33;;
19084;SDS011;9675;51.538;6.728;2023-03-22T03:16:24;12.07;;;4.13;;
19084;SDS011;9675;51.538;6.728;2023-03-22T03:18:59;7.07;;;3.37;;
19084;SDS011;9675;51.538;6.728;2023-03-22T03:21:33;7.07;;;3.50;;
19084;SDS011;9675;51.538;6.728;2023-03-22T03:24:16;6.17;;;2.87;;
19084;SDS011;9675;51.538;6.728;2023-03-22T03:26:55;4.70;;;2.17;;
19084;SDS011;9675;51.538;6.728;2023-03-22T03:29:30;6.23;;;3.00;;
19084;SDS011;9675;51.538;6.728;2023-03-22T03:32:05;7.87;;;2.83;;
19084;SDS011;9675;51.538;6.728;2023-03-22T03:34:40;9.60;;;3.27;;
19084;SDS011;9675;51.538;6.728;2023-03-22T03:37:14;5.97;;;2.70;;
19084;SDS011;9675;51.538;6.728;2023-03-22T03:39:47;7.43;;;3.63;;
19084;SDS011;9675;51.538;6.728;2023-03-22T03:42:22;6.43;;;3.17;;
19084;SDS011;9675;51.538;6.728;2023-03-22T03:44:54;8.97;;;3.10;;
19084;SDS011;9675;51.538;6.728;2023-03-22T03:47:22;11.30;;;3.10;;
19084;SDS011;9675;51.538;6.728;2023-03-22T03:49:52;7.83;;;3.27;;
19084;SDS011;9675;51.538;6.728;2023-03-22T03:52:20;7.83;;;2.90;;
19084;SDS011;9675;51.538;6.728;2023-03-22T03:54:48;7.30;;;3.30;;
19084;SDS011;9675;51.538;6.728;2023-03-22T03:57:15;11.70;;;3.63;;
19084;SDS011;9675;51.538;6.728;2023-03-22T03:59:44;4.87;;;2.27;;
19084;SDS011;9675;51.538;6.728;2023-03-22T04:02:11;8.77;;;3.00;;
19084;SDS011;9675;51.538;6.728;2023-03-22T04:04:38;4.77;;;2.50;;
19084;SDS011;9675;51.538;6.728;2023-03-22T04:07:05;4.60;;;2.43;;
19084;SDS011;9675;51.538;6.728;2023-03-22T04:09:32;7.57;;;3.33;;
19084;SDS011;9675;51.538;6.728;2023-03-22T04:12:02;5.83;;;2.80;;
19084;SDS011;9675;51.538;6.728;2023-03-22T04:14:30;5.20;;;2.03;;
19084;SDS011;9675;51.538;6.728;2023-03-22T04:16:58;7.17;;;3.03;;
19084;SDS011;9675;51.538;6.728;2023-03-22T04:19:25;9.27;;;3.37;;
19084;SDS011;9675;51.538;6.728;2023-03-22T04:21:52;5.97;;;2.27;;
19084;SDS011;9675;51.538;6.728;2023-03-22T04:24:20;6.40;;;3.27;;
19084;SDS011;9675;51.538;6.728;2023-03-22T04:26:47;9.30;;;3.13;;
19084;SDS011;9675;51.538;6.728;2023-03-22T04:29:16;13.13;;;2.73;;
19084;SDS011;9675;51.538;6.728;2023-03-22T04:31:43;8.93;;;2.40;;
19084;SDS011;9675;51.538;6.728;2023-03-22T04:34:12;5.80;;;2.33;;
19084;SDS011;9675;51.538;6.728;2023-03-22T04:36:39;8.37;;;3.40;;
19084;SDS011;9675;51.538;6.728;2023-03-22T04:39:07;10.23;;;2.43;;
19084;SDS011;9675;51.538;6.728;2023-03-22T04:41:36;4.73;;;2.77;;
19084;SDS011;9675;51.538;6.728;2023-03-22T04:44:04;6.87;;;2.60;;
19084;SDS011;9675;51.538;6.728;2023-03-22T04:46:33;7.37;;;2.57;;
19084;SDS011;9675;51.538;6.728;2023-03-22T04:49:02;7.23;;;2.77;;
19084;SDS011;9675;51.538;6.728;2023-03-22T04:51:34;3.47;;;1.87;;
19084;SDS011;9675;51.538;6.728;2023-03-22T04:54:01;6.83;;;2.40;;
19084;SDS011;9675;51.538;6.728;2023-03-22T04:56:28;9.40;;;3.20;;
19084;SDS011;9675;51.538;6.728;2023-03-22T04:58:55;16.17;;;3.07;;
19084;SDS011;9675;51.538;6.728;2023-03-22T05:01:22;7.67;;;3.93;;
19084;SDS011;9675;51.538;6.728;2023-03-22T05:03:49;9.53;;;2.97;;
19084;SDS011;9675;51.538;6.728;2023-03-22T05:06:16;5.77;;;2.67;;
19084;SDS011;9675;51.538;6.728;2023-03-22T05:08:45;6.80;;;3.10;;
19084;SDS011;9675;51.538;6.728;2023-03-22T05:11:13;8.47;;;3.53;;
19084;SDS011;9675;51.538;6.728;2023-03-22T05:13:43;4.13;;;2.57;;
19084;SDS011;9675;51.538;6.728;2023-03-22T05:16:10;4.63;;;2.03;;
19084;SDS011;9675;51.538;6.728;2023-03-22T05:18:37;5.70;;;2.73;;
19084;SDS011;9675;51.538;6.728;2023-03-22T05:21:10;9.57;;;2.47;;
19084;SDS011;9675;51.538;6.728;2023-03-22T05:23:40;11.87;;;3.03;;
19084;SDS011;9675;51.538;6.728;2023-03-22T05:26:09;8.57;;;2.90;;
19084;SDS011;9675;51.538;6.728;2023-03-22T05:28:40;11.73;;;3.27;;
19084;SDS011;9675;51.538;6.728;2023-03-22T05:31:07;8.67;;;3.90;;
19084;SDS011;9675;51.538;6.728;2023-03-22T05:33:35;4.20;;;2.27;;
19084;SDS011;9675;51.538;6.728;2023-03-22T05:36:03;5.87;;;2.63;;
19084;SDS011;9675;51.538;6.728;2023-03-22T05:38:31;7.73;;;3.40;;
19084;SDS011;9675;51.538;6.728;2023-03-22T05:40:58;3.33;;;1.97;;
19084;SDS011;9675;51.538;6.728;2023-03-22T05:43:26;6.80;;;2.67;;
19084;SDS011;9675;51.538;6.728;2023-03-22T05:45:54;4.90;;;2.20;;
19084;SDS011;9675;51.538;6.728;2023-03-22T05:48:21;4.60;;;2.37;;
19084;SDS011;9675;51.538;6.728;2023-03-22T05:50:48;7.00;;;2.67;;
19084;SDS011;9675;51.538;6.728;2023-03-22T05:53:15;6.53;;;2.40;;
19084;SDS011;9675;51.538;6.728;2023-03-22T05:55:42;5.57;;;2.30;;
19084;SDS011;9675;51.538;6.728;2023-03-22T05:58:09;12.97;;;3.43;;
19084;SDS011;9675;51.538;6.728;2023-03-22T06:00:38;4.10;;;2.33;;
19084;SDS011;9675;51.538;6.728;2023-03-22T06:03:08;4.73;;;2.50;;
19084;SDS011;9675;51.538;6.728;2023-03-22T06:05:35;5.17;;;2.47;;
19084;SDS011;9675;51.538;6.728;2023-03-22T06:08:03;2.70;;;1.87;;
19084;SDS011;9675;51.538;6.728;2023-03-22T06:10:31;7.67;;;2.40;;
19084;SDS011;9675;51.538;6.728;2023-03-22T06:13:03;7.80;;;2.10;;
19084;SDS011;9675;51.538;6.728;2023-03-22T06:15:30;8.43;;;3.10;;
19084;SDS011;9675;51.538;6.728;2023-03-22T06:17:58;7.23;;;3.23;;
19084;SDS011;9675;51.538;6.728;2023-03-22T06:20:25;5.90;;;2.80;;
19084;SDS011;9675;51.538;6.728;2023-03-22T06:22:52;7.47;;;2.63;;
19084;SDS011;9675;51.538;6.728;2023-03-22T06:25:20;7.63;;;3.33;;
19084;SDS011;9675;51.538;6.728;2023-03-22T06:27:47;10.27;;;3.23;;
19084;SDS011;9675;51.538;6.728;2023-03-22T06:30:18;5.60;;;2.50;;
19084;SDS011;9675;51.538;6.728;2023-03-22T06:32:46;5.00;;;2.53;;
19084;SDS011;9675;51.538;6.728;2023-03-22T06:35:17;4.77;;;2.37;;
19084;SDS011;9675;51.538;6.728;2023-03-22T06:37:45;7.43;;;2.60;;
19084;SDS011;9675;51.538;6.728;2023-03-22T06:40:15;6.30;;;1.93;;
19084;SDS011;9675;51.538;6.728;2023-03-22T06:42:45;6.47;;;2.40;;
19084;SDS011;9675;51.538;6.728;2023-03-22T06:45:12;15.50;;;3.03;;
19084;SDS011;9675;51.538;6.728;2023-03-22T06:47:40;8.93;;;2.80;;
19084;SDS011;9675;51.538;6.728;2023-03-22T06:50:09;8.97;;;2.23;;
19084;SDS011;9675;51.538;6.728;2023-03-22T06:52:41;9.27;;;2.50;;
19084;SDS011;9675;51.538;6.728;2023-03-22T06:55:09;8.50;;;2.03;;
19084;SDS011;9675;51.538;6.728;2023-03-22T06:57:40;5.43;;;2.67;;
19084;SDS011;9675;51.538;6.728;2023-03-22T07:00:07;4.83;;;2.30;;
19084;SDS011;9675;51.538;6.728;2023-03-22T07:02:36;4.20;;;1.50;;
19084;SDS011;9675;51.538;6.728;2023-03-22T07:05:04;9.93;;;2.43;;
19084;SDS011;9675;51.538;6.728;2023-03-22T07:07:32;4.27;;;1.80;;
19084;SDS011;9675;51.538;6.728;2023-03-22T07:10:00;6.67;;;1.67;;
19084;SDS011;9675;51.538;6.728;2023-03-22T07:12:27;3.70;;;1.70;;
19084;SDS011;9675;51.538;6.728;2023-03-22T07:14:54;5.10;;;2.90;;
19084;SDS011;9675;51.538;6.728;2023-03-22T07:17:21;8.87;;;2.93;;
19084;SDS011;9675;51.538;6.728;2023-03-22T07:19:48;9.57;;;2.80;;
19084;SDS011;9675;51.538;6.728;2023-03-22T07:22:15;4.03;;;1.83;;
19084;SDS011;9675;51.538;6.728;2023-03-22T07:24:45;3.33;;;1.40;;
19084;SDS011;9675;51.538;6.728;2023-03-22T07:27:13;3.53;;;2.00;;
19084;SDS011;9675;51.538;6.728;2023-03-22T07:29:40;1.67;;;1.10;;
19084;SDS011;9675;51.538;6.728;2023-03-22T07:32:08;2.03;;;0.93;;
19084;SDS011;9675;51.538;6.728;2023-03-22T07:34:36;2.53;;;1.83;;
19084;SDS011;9675;51.538;6.728;2023-03-22T07:37:04;3.20;;;1.40;;
19084;SDS011;9675;51.538;6.728;2023-03-22T07:39:32;2.90;;;1.10;;
19084;SDS011;9675;51.538;6.728;2023-03-22T07:41:59;2.37;;;1.37;;
19084;SDS011;9675;51.538;6.728;2023-03-22T07:44:27;2.70;;;0.97;;
19084;SDS011;9675;51.538;6.728;2023-03-22T07:46:55;4.73;;;1.30;;
19084;SDS011;9675;51.538;6.728;2023-03-22T07:49:22;6.73;;;1.47;;
19084;SDS011;9675;51.538;6.728;2023-03-22T07:51:50;8.57;;;1.07;;
19084;SDS011;9675;51.538;6.728;2023-03-22T07:54:17;3.80;;;1.10;;
19084;SDS011;9675;51.538;6.728;2023-03-22T07:56:44;5.80;;;1.00;;
19084;SDS011;9675;51.538;6.728;2023-03-22T07:59:12;5.77;;;0.97;;
19084;SDS011;9675;51.538;6.728;2023-03-22T08:01:40;3.73;;;0.93;;
19084;SDS011;9675;51.538;6.728;2023-03-22T08:04:07;4.03;;;1.30;;
19084;SDS011;9675;51.538;6.728;2023-03-22T08:06:34;0.60;;;0.50;;
19084;SDS011;9675;51.538;6.728;2023-03-22T08:09:04;5.93;;;1.40;;
19084;SDS011;9675;51.538;6.728;2023-03-22T08:11:33;2.90;;;1.03;;
19084;SDS011;9675;51.538;6.728;2023-03-22T08:14:00;5.93;;;1.57;;
19084;SDS011;9675;51.538;6.728;2023-03-22T08:16:27;1.20;;;0.80;;
19084;SDS011;9675;51.538;6.728;2023-03-22T08:18:56;4.00;;;1.30;;
19084;SDS011;9675;51.538;6.728;2023-03-22T08:21:23;1.17;;;0.70;;
19084;SDS011;9675;51.538;6.728;2023-03-22T08:23:51;4.43;;;0.87;;
19084;SDS011;9675;51.538;6.728;2023-03-22T08:26:18;3.20;;;0.80;;
19084;SDS011;9675;51.538;6.728;2023-03-22T08:28:46;3.53;;;1.00;;
19084;SDS011;9675;51.538;6.728;2023-03-22T08:31:13;5.23;;;1.27;;
19084;SDS011;9675;51.538;6.728;2023-03-22T08:33:42;4.07;;;0.70;;
19084;SDS011;9675;51.538;6.728;2023-03-22T08:36:12;3.93;;;1.00;;
19084;SDS011;9675;51.538;6.728;2023-03-22T08:38:42;3.13;;;1.27;;
19084;SDS011;9675;51.538;6.728;2023-03-22T08:41:10;5.90;;;1.30;;
19084;SDS011;9675;51.538;6.728;2023-03-22T08:43:37;5.80;;;0.97;;
19084;SDS011;9675;51.538;6.728;2023-03-22T08:46:04;3.40;;;0.97;;
19084;SDS011;9675;51.538;6.728;2023-03-22T08:48:31;1.60;;;0.77;;
19084;SDS011;9675;51.538;6.728;2023-03-22T08:50:59;4.00;;;0.90;;
19084;SDS011;9675;51.538;6.728;2023-03-22T08:53:28;3.47;;;0.70;;
19084;SDS011;9675;51.538;6.728;2023-03-22T08:55:55;3.00;;;0.90;;
19084;SDS011;9675;51.538;6.728;2023-03-22T08:58:25;4.07;;;1.30;;
19084;SDS011;9675;51.538;6.728;2023-03-22T09:00:53;6.27;;;1.20;;
19084;SDS011;9675;51.538;6.728;2023-03-22T09:03:20;5.47;;;1.10;;
19084;SDS011;9675;51.538;6.728;2023-03-22T09:05:48;5.27;;;0.80;;
19084;SDS011;9675;51.538;6.728;2023-03-22T09:08:15;4.90;;;0.53;;
19084;SDS011;9675;51.538;6.728;2023-03-22T09:10:43;4.53;;;1.00;;
19084;SDS011;9675;51.538;6.728;2023-03-22T09:13:12;5.40;;;1.10;;
19084;SDS011;9675;51.538;6.728;2023-03-22T09:15:40;3.33;;;0.93;;
19084;SDS011;9675;51.538;6.728;2023-03-22T09:18:09;2.77;;;0.50;;
19084;SDS011;9675;51.538;6.728;2023-03-22T09:20:37;3.43;;;0.93;;
19084;SDS011;9675;51.538;6.728;2023-03-22T09:23:04;1.33;;;0.83;;
19084;SDS011;9675;51.538;6.728;2023-03-22T09:25:32;2.73;;;0.67;;
19084;SDS011;9675;51.538;6.728;2023-03-22T09:28:00;2.70;;;0.80;;
19084;SDS011;9675;51.538;6.728;2023-03-22T09:30:28;3.40;;;0.80;;
19084;SDS011;9675;51.538;6.728;2023-03-22T09:32:55;2.30;;;1.10;;
19084;SDS011;9675;51.538;6.728;2023-03-22T09:35:22;2.87;;;0.80;;
19084;SDS011;9675;51.538;6.728;2023-03-22T09:37:50;2.97;;;0.70;;
19084;SDS011;9675;51.538;6.728;2023-03-22T09:40:18;3.70;;;0.67;;
19084;SDS011;9675;51.538;6.728;2023-03-22T09:42:48;2.80;;;1.07;;
19084;SDS011;9675;51.538;6.728;2023-03-22T09:45:22;5.50;;;1.00;;
19084;SDS011;9675;51.538;6.728;2023-03-22T09:48:01;3.07;;;0.73;;
19084;SDS011;9675;51.538;6.728;2023-03-22T09:50:38;7.50;;;0.73;;
19084;SDS011;9675;51.538;6.728;2023-03-22T09:53:16;5.80;;;1.10;;
19084;SDS011;9675;51.538;6.728;2023-03-22T09:55:46;4.60;;;0.93;;
19084;SDS011;9675;51.538;6.728;2023-03-22T09:58:23;8.00;;;2.67;;
19084;SDS011;9675;51.538;6.728;2023-03-22T10:00:59;5.10;;;1.00;;
19084;SDS011;9675;51.538;6.728;2023-03-22T10:03:46;9.07;;;1.97;;
19084;SDS011;9675;51.538;6.728;2023-03-22T10:06:52;6.17;;;1.73;;
19084;SDS011;9675;51.538;6.728;2023-03-22T10:09:32;2.90;;;0.80;;
19084;SDS011;9675;51.538;6.728;2023-03-22T10:12:13;6.80;;;1.63;;
19084;SDS011;9675;51.538;6.728;2023-03-22T10:14:48;4.30;;;0.93;;
19084;SDS011;9675;51.538;6.728;2023-03-22T10:17:25;10.47;;;3.60;;
19084;SDS011;9675;51.538;6.728;2023-03-22T10:19:55;7.40;;;1.57;;
19084;SDS011;9675;51.538;6.728;2023-03-22T10:22:29;8.07;;;3.00;;
19084;SDS011;9675;51.538;6.728;2023-03-22T10:25:01;4.13;;;1.20;;
19084;SDS011;9675;51.538;6.728;2023-03-22T10:27:32;4.27;;;0.97;;
19084;SDS011;9675;51.538;6.728;2023-03-22T10:30:03;5.80;;;1.50;;
19084;SDS011;9675;51.538;6.728;2023-03-22T10:32:49;3.60;;;0.90;;
19084;SDS011;9675;51.538;6.728;2023-03-22T10:35:23;2.93;;;1.20;;
19084;SDS011;9675;51.538;6.728;2023-03-22T10:37:50;3.17;;;0.90;;
19084;SDS011;9675;51.538;6.728;2023-03-22T10:40:22;1.60;;;0.60;;
19084;SDS011;9675;51.538;6.728;2023-03-22T10:42:53;3.90;;;0.80;;
19084;SDS011;9675;51.538;6.728;2023-03-22T10:45:24;4.00;;;1.10;;
19084;SDS011;9675;51.538;6.728;2023-03-22T10:47:55;3.43;;;0.87;;
19084;SDS011;9675;51.538;6.728;2023-03-22T10:50:29;3.63;;;0.60;;
19084;SDS011;9675;51.538;6.728;2023-03-22T10:53:02;5.13;;;0.90;;
19084;SDS011;9675;51.538;6.728;2023-03-22T10:55:38;2.80;;;1.00;;
19084;SDS011;9675;51.538;6.728;2023-03-22T10:58:10;3.73;;;0.80;;
19084;SDS011;9675;51.538;6.728;2023-03-22T11:00:42;3.90;;;1.43;;
19084;SDS011;9675;51.538;6.728;2023-03-22T11:03:16;4.60;;;0.67;;
19084;SDS011;9675;51.538;6.728;2023-03-22T11:05:58;3.77;;;0.90;;
19084;SDS011;9675;51.538;6.728;2023-03-22T11:08:28;4.00;;;1.20;;
19084;SDS011;9675;51.538;6.728;2023-03-22T11:11:13;3.13;;;0.60;;
19084;SDS011;9675;51.538;6.728;2023-03-22T11:13:50;1.90;;;0.70;;
19084;SDS011;9675;51.538;6.728;2023-03-22T11:16:25;2.53;;;0.73;;
19084;SDS011;9675;51.538;6.728;2023-03-22T11:18:54;9.00;;;0.93;;
19084;SDS011;9675;51.538;6.728;2023-03-22T11:21:27;0.43;;;0.37;;
19084;SDS011;9675;51.538;6.728;2023-03-22T11:23:59;2.83;;;0.60;;
19084;SDS011;9675;51.538;6.728;2023-03-22T11:26:31;1.60;;;0.83;;
19084;SDS011;9675;51.538;6.728;2023-03-22T11:29:03;5.23;;;1.10;;
19084;SDS011;9675;51.538;6.728;2023-03-22T11:31:48;4.63;;;0.80;;
19084;SDS011;9675;51.538;6.728;2023-03-22T11:34:21;4.93;;;0.50;;
19084;SDS011;9675;51.538;6.728;2023-03-22T11:36:51;3.00;;;0.43;;
19084;SDS011;9675;51.538;6.728;2023-03-22T11:39:22;3.47;;;0.70;;
19084;SDS011;9675;51.538;6.728;2023-03-22T11:41:53;2.07;;;0.73;;
19084;SDS011;9675;51.538;6.728;2023-03-22T11:44:25;5.53;;;1.13;;
19084;SDS011;9675;51.538;6.728;2023-03-22T11:46:59;2.10;;;0.77;;
19084;SDS011;9675;51.538;6.728;2023-03-22T11:49:33;4.83;;;1.03;;
19084;SDS011;9675;51.538;6.728;2023-03-22T11:52:13;1.57;;;0.60;;
19084;SDS011;9675;51.538;6.728;2023-03-22T11:54:43;1.60;;;0.60;;
19084;SDS011;9675;51.538;6.728;2023-03-22T11:57:13;5.40;;;1.60;;
19084;SDS011;9675;51.538;6.728;2023-03-22T11:59:45;4.30;;;0.90;;
19084;SDS011;9675;51.538;6.728;2023-03-22T12:02:20;2.93;;;0.90;;
19084;SDS011;9675;51.538;6.728;2023-03-22T12:04:54;3.17;;;0.83;;
19084;SDS011;9675;51.538;6.728;2023-03-22T12:07:29;2.80;;;0.80;;
19084;SDS011;9675;51.538;6.728;2023-03-22T12:10:02;3.53;;;0.80;;
19084;SDS011;9675;51.538;6.728;2023-03-22T12:12:38;4.63;;;1.27;;
19084;SDS011;9675;51.538;6.728;2023-03-22T12:15:12;2.27;;;1.20;;
19084;SDS011;9675;51.538;6.728;2023-03-22T12:17:46;5.63;;;1.67;;
19084;SDS011;9675;51.538;6.728;2023-03-22T12:20:26;7.60;;;1.67;;
19084;SDS011;9675;51.538;6.728;2023-03-22T12:23:01;2.33;;;1.30;;
19084;SDS011;9675;51.538;6.728;2023-03-22T12:25:41;3.20;;;0.80;;
19084;SDS011;9675;51.538;6.728;2023-03-22T12:28:16;3.50;;;1.40;;
19084;SDS011;9675;51.538;6.728;2023-03-22T12:30:48;2.07;;;0.77;;
19084;SDS011;9675;51.538;6.728;2023-03-22T12:33:23;1.87;;;0.50;;
19084;SDS011;9675;51.538;6.728;2023-03-22T12:35:56;2.50;;;0.90;;
19084;SDS011;9675;51.538;6.728;2023-03-22T12:38:28;1.60;;;0.73;;
19084;SDS011;9675;51.538;6.728;2023-03-22T12:41:06;6.63;;;0.80;;
19084;SDS011;9675;51.538;6.728;2023-03-22T12:43:38;2.17;;;0.70;;
19084;SDS011;9675;51.538;6.728;2023-03-22T12:46:16;1.90;;;0.70;;
19084;SDS011;9675;51.538;6.728;2023-03-22T12:48:48;3.20;;;0.60;;
19084;SDS011;9675;51.538;6.728;2023-03-22T12:51:20;2.90;;;0.70;;
19084;SDS011;9675;51.538;6.728;2023-03-22T12:53:48;0.73;;;0.40;;
19084;SDS011;9675;51.538;6.728;2023-03-22T12:56:21;1.63;;;0.70;;
19084;SDS011;9675;51.538;6.728;2023-03-22T12:58:54;2.17;;;0.67;;
19084;SDS011;9675;51.538;6.728;2023-03-22T13:01:30;4.53;;;0.80;;
19084;SDS011;9675;51.538;6.728;2023-03-22T13:07:06;2.03;;;0.40;;
19084;SDS011;9675;51.538;6.728;2023-03-22T13:09:40;1.73;;;0.53;;
19084;SDS011;9675;51.538;6.728;2023-03-22T13:12:25;5.77;;;1.50;;
19084;SDS011;9675;51.538;6.728;2023-03-22T13:15:03;4.10;;;0.70;;
19084;SDS011;9675;51.538;6.728;2023-03-22T13:17:58;6.97;;;1.97;;
19084;SDS011;9675;51.538;6.728;2023-03-22T13:20:29;3.23;;;1.13;;
19084;SDS011;9675;51.538;6.728;2023-03-22T13:23:04;1.87;;;0.73;;
19084;SDS011;9675;51.538;6.728;2023-03-22T13:25:57;9.20;;;2.60;;
19084;SDS011;9675;51.538;6.728;2023-03-22T13:28:30;2.57;;;1.10;;
19084;SDS011;9675;51.538;6.728;2023-03-22T13:31:02;18.40;;;5.73;;
19084;SDS011;9675;51.538;6.728;2023-03-22T13:33:30;7.73;;;2.40;;
19084;SDS011;9675;51.538;6.728;2023-03-22T13:36:02;5.80;;;2.37;;
19084;SDS011;9675;51.538;6.728;2023-03-22T13:38:53;4.63;;;1.70;;
19084;SDS011;9675;51.538;6.728;2023-03-22T13:41:24;5.87;;;2.50;;
19084;SDS011;9675;51.538;6.728;2023-03-22T13:43:55;2.33;;;1.43;;
19084;SDS011;9675;51.538;6.728;2023-03-22T13:46:28;2.23;;;1.00;;
19084;SDS011;9675;51.538;6.728;2023-03-22T13:49:16;4.30;;;1.53;;
19084;SDS011;9675;51.538;6.728;2023-03-22T13:52:20;2.83;;;1.10;;
19084;SDS011;9675;51.538;6.728;2023-03-22T13:54:56;5.63;;;2.37;;
19084;SDS011;9675;51.538;6.728;2023-03-22T13:57:37;2.27;;;0.80;;
19084;SDS011;9675;51.538;6.728;2023-03-22T14:00:31;5.77;;;1.47;;
19084;SDS011;9675;51.538;6.728;2023-03-22T14:03:04;3.17;;;1.17;;
19084;SDS011;9675;51.538;6.728;2023-03-22T14:05:41;3.83;;;1.30;;
19084;SDS011;9675;51.538;6.728;2023-03-22T14:08:16;1.63;;;0.83;;
19084;SDS011;9675;51.538;6.728;2023-03-22T14:10:55;8.67;;;1.50;;
19084;SDS011;9675;51.538;6.728;2023-03-22T14:13:31;4.00;;;0.70;;
19084;SDS011;9675;51.538;6.728;2023-03-22T14:16:06;2.73;;;0.70;;
19084;SDS011;9675;51.538;6.728;2023-03-22T14:18:41;1.87;;;1.27;;
19084;SDS011;9675;51.538;6.728;2023-03-22T14:21:12;1.73;;;0.60;;
19084;SDS011;9675;51.538;6.728;2023-03-22T14:23:45;4.07;;;0.87;;
19084;SDS011;9675;51.538;6.728;2023-03-22T14:26:21;1.67;;;0.37;;
19084;SDS011;9675;51.538;6.728;2023-03-22T14:28:52;2.57;;;0.70;;
19084;SDS011;9675;51.538;6.728;2023-03-22T14:31:21;1.77;;;0.40;;
19084;SDS011;9675;51.538;6.728;2023-03-22T14:33:53;5.80;;;0.70;;
19084;SDS011;9675;51.538;6.728;2023-03-22T14:36:27;2.13;;;0.87;;
19084;SDS011;9675;51.538;6.728;2023-03-22T14:39:02;1.57;;;0.67;;
19084;SDS011;9675;51.538;6.728;2023-03-22T14:41:34;3.13;;;1.03;;
19084;SDS011;9675;51.538;6.728;2023-03-22T14:44:01;4.53;;;0.97;;
19084;SDS011;9675;51.538;6.728;2023-03-22T14:46:32;4.53;;;0.90;;
19084;SDS011;9675;51.538;6.728;2023-03-22T14:49:02;3.40;;;0.63;;
19084;SDS011;9675;51.538;6.728;2023-03-22T14:51:30;3.80;;;0.90;;
19084;SDS011;9675;51.538;6.728;2023-03-22T14:54:02;1.03;;;0.50;;
19084;SDS011;9675;51.538;6.728;2023-03-22T14:56:37;1.03;;;0.50;;
19084;SDS011;9675;51.538;6.728;2023-03-22T14:59:10;1.53;;;0.73;;
19084;SDS011;9675;51.538;6.728;2023-03-22T15:01:42;5.57;;;0.60;;
19084;SDS011;9675;51.538;6.728;2023-03-22T15:04:14;2.03;;;0.73;;
19084;SDS011;9675;51.538;6.728;2023-03-22T15:06:43;2.30;;;0.70;;
19084;SDS011;9675;51.538;6.728;2023-03-22T15:09:15;3.27;;;1.03;;
19084;SDS011;9675;51.538;6.728;2023-03-22T15:11:46;2.20;;;0.40;;
19084;SDS011;9675;51.538;6.728;2023-03-22T15:14:16;4.20;;;1.23;;
19084;SDS011;9675;51.538;6.728;2023-03-22T15:16:44;2.70;;;0.50;;
19084;SDS011;9675;51.538;6.728;2023-03-22T15:19:16;0.63;;;0.60;;
19084;SDS011;9675;51.538;6.728;2023-03-22T15:21:53;4.23;;;0.80;;
19084;SDS011;9675;51.538;6.728;2023-03-22T15:24:29;2.93;;;0.70;;
19084;SDS011;9675;51.538;6.728;2023-03-22T15:27:03;2.10;;;0.60;;
19084;SDS011;9675;51.538;6.728;2023-03-22T15:29:39;4.50;;;0.77;;
19084;SDS011;9675;51.538;6.728;2023-03-22T15:32:09;4.43;;;0.80;;
19084;SDS011;9675;51.538;6.728;2023-03-22T15:34:42;3.80;;;0.77;;
19084;SDS011;9675;51.538;6.728;2023-03-22T15:37:11;2.43;;;0.67;;